sensor_id;sensor_type;location;lat;lon;timestamp;P1;durP1;ratioP1;P2;durP2;ratioP2
75732;SDS011;64435;47.424;19.400;2022-12-18T00:00:42;31.10;;;11.70;;
75732;SDS011;64435;47.424;19.400;2022-12-18T00:03:08;27.33;;;10.90;;
75732;SDS011;64435;47.424;19.400;2022-12-18T00:05:34;28.60;;;11.10;;
75732;SDS011;64435;47.424;19.400;2022-12-18T00:07:59;29.48;;;11.65;;
75732;SDS011;64435;47.424;19.400;2022-12-18T00:10:25;35.40;;;11.23;;
75732;SDS011;64435;47.424;19.400;2022-12-18T00:12:50;30.10;;;11.33;;
75732;SDS011;64435;47.424;19.400;2022-12-18T00:15:16;33.93;;;12.50;;
75732;SDS011;64435;47.424;19.400;2022-12-18T00:17:41;31.10;;;11.05;;
75732;SDS011;64435;47.424;19.400;2022-12-18T00:20:07;31.90;;;10.60;;
75732;SDS011;64435;47.424;19.400;2022-12-18T00:22:33;30.50;;;10.95;;
75732;SDS011;64435;47.424;19.400;2022-12-18T00:24:58;32.10;;;11.60;;
75732;SDS011;64435;47.424;19.400;2022-12-18T00:27:23;33.70;;;12.27;;
75732;SDS011;64435;47.424;19.400;2022-12-18T00:29:49;32.65;;;12.18;;
75732;SDS011;64435;47.424;19.400;2022-12-18T00:32:15;31.20;;;10.77;;
75732;SDS011;64435;47.424;19.400;2022-12-18T00:34:40;29.20;;;11.97;;
75732;SDS011;64435;47.424;19.400;2022-12-18T00:37:05;30.63;;;12.17;;
75732;SDS011;64435;47.424;19.400;2022-12-18T00:39:31;27.40;;;10.40;;
75732;SDS011;64435;47.424;19.400;2022-12-18T00:41:56;33.67;;;12.13;;
75732;SDS011;64435;47.424;19.400;2022-12-18T00:44:40;31.12;;;11.32;;
75732;SDS011;64435;47.424;19.400;2022-12-18T00:47:05;34.73;;;11.67;;
75732;SDS011;64435;47.424;19.400;2022-12-18T00:49:31;30.67;;;11.80;;
75732;SDS011;64435;47.424;19.400;2022-12-18T00:51:56;30.83;;;12.00;;
75732;SDS011;64435;47.424;19.400;2022-12-18T00:54:21;31.13;;;11.83;;
75732;SDS011;64435;47.424;19.400;2022-12-18T00:56:47;32.63;;;12.18;;
75732;SDS011;64435;47.424;19.400;2022-12-18T00:59:12;30.70;;;11.33;;
75732;SDS011;64435;47.424;19.400;2022-12-18T01:01:38;29.93;;;11.43;;
75732;SDS011;64435;47.424;19.400;2022-12-18T01:04:04;31.98;;;11.50;;
75732;SDS011;64435;47.424;19.400;2022-12-18T01:06:30;34.05;;;11.10;;
75732;SDS011;64435;47.424;19.400;2022-12-18T01:08:56;35.00;;;11.67;;
75732;SDS011;64435;47.424;19.400;2022-12-18T01:11:21;31.63;;;10.70;;
75732;SDS011;64435;47.424;19.400;2022-12-18T01:13:47;32.80;;;11.00;;
75732;SDS011;64435;47.424;19.400;2022-12-18T01:16:13;29.10;;;10.77;;
75732;SDS011;64435;47.424;19.400;2022-12-18T01:18:39;30.80;;;12.05;;
75732;SDS011;64435;47.424;19.400;2022-12-18T01:21:06;33.60;;;11.70;;
75732;SDS011;64435;47.424;19.400;2022-12-18T01:23:32;30.80;;;10.27;;
75732;SDS011;64435;47.424;19.400;2022-12-18T01:25:58;30.77;;;11.90;;
75732;SDS011;64435;47.424;19.400;2022-12-18T01:28:23;26.23;;;11.05;;
75732;SDS011;64435;47.424;19.400;2022-12-18T01:30:48;33.53;;;11.00;;
75732;SDS011;64435;47.424;19.400;2022-12-18T01:33:14;34.87;;;13.47;;
75732;SDS011;64435;47.424;19.400;2022-12-18T01:35:40;38.87;;;13.77;;
75732;SDS011;64435;47.424;19.400;2022-12-18T01:38:06;32.65;;;11.00;;
75732;SDS011;64435;47.424;19.400;2022-12-18T01:40:32;33.63;;;12.50;;
75732;SDS011;64435;47.424;19.400;2022-12-18T01:42:57;32.90;;;11.80;;
75732;SDS011;64435;47.424;19.400;2022-12-18T01:45:27;31.43;;;11.83;;
75732;SDS011;64435;47.424;19.400;2022-12-18T01:52:53;31.30;;;12.00;;
75732;SDS011;64435;47.424;19.400;2022-12-18T01:55:25;31.05;;;11.45;;
75732;SDS011;64435;47.424;19.400;2022-12-18T01:57:52;32.90;;;12.90;;
75732;SDS011;64435;47.424;19.400;2022-12-18T02:00:20;35.83;;;12.98;;
75732;SDS011;64435;47.424;19.400;2022-12-18T02:02:48;32.38;;;11.90;;
75732;SDS011;64435;47.424;19.400;2022-12-18T02:05:18;39.47;;;12.73;;
75732;SDS011;64435;47.424;19.400;2022-12-18T02:11:03;35.25;;;11.63;;
75732;SDS011;64435;47.424;19.400;2022-12-18T02:13:27;35.65;;;13.35;;
75732;SDS011;64435;47.424;19.400;2022-12-18T02:16:06;39.27;;;15.77;;
75732;SDS011;64435;47.424;19.400;2022-12-18T02:18:50;36.63;;;13.65;;
75732;SDS011;64435;47.424;19.400;2022-12-18T02:23:56;40.20;;;15.82;;
75732;SDS011;64435;47.424;19.400;2022-12-18T02:26:53;37.53;;;15.60;;
75732;SDS011;64435;47.424;19.400;2022-12-18T02:29:22;41.10;;;16.03;;
75732;SDS011;64435;47.424;19.400;2022-12-18T02:31:52;35.63;;;13.95;;
75732;SDS011;64435;47.424;19.400;2022-12-18T02:34:20;43.65;;;14.45;;
75732;SDS011;64435;47.424;19.400;2022-12-18T02:36:49;36.65;;;13.32;;
75732;SDS011;64435;47.424;19.400;2022-12-18T02:39:16;39.28;;;13.48;;
75732;SDS011;64435;47.424;19.400;2022-12-18T02:41:42;38.97;;;14.10;;
75732;SDS011;64435;47.424;19.400;2022-12-18T02:44:10;33.50;;;13.85;;
75732;SDS011;64435;47.424;19.400;2022-12-18T02:46:38;42.50;;;14.18;;
75732;SDS011;64435;47.424;19.400;2022-12-18T02:51:50;39.40;;;13.57;;
75732;SDS011;64435;47.424;19.400;2022-12-18T02:54:21;42.80;;;14.93;;
75732;SDS011;64435;47.424;19.400;2022-12-18T02:57:04;35.40;;;13.48;;
75732;SDS011;64435;47.424;19.400;2022-12-18T02:59:40;32.28;;;13.50;;
75732;SDS011;64435;47.424;19.400;2022-12-18T03:02:45;37.75;;;12.93;;
75732;SDS011;64435;47.424;19.400;2022-12-18T03:05:21;31.60;;;12.27;;
75732;SDS011;64435;47.424;19.400;2022-12-18T03:07:50;38.80;;;12.82;;
75732;SDS011;64435;47.424;19.400;2022-12-18T03:10:19;41.13;;;13.75;;
75732;SDS011;64435;47.424;19.400;2022-12-18T03:13:03;32.42;;;11.95;;
75732;SDS011;64435;47.424;19.400;2022-12-18T03:15:35;32.72;;;12.25;;
75732;SDS011;64435;47.424;19.400;2022-12-18T03:18:04;32.43;;;11.67;;
75732;SDS011;64435;47.424;19.400;2022-12-18T03:20:34;32.90;;;13.10;;
75732;SDS011;64435;47.424;19.400;2022-12-18T03:23:02;30.00;;;12.02;;
75732;SDS011;64435;47.424;19.400;2022-12-18T03:25:33;34.83;;;12.80;;
75732;SDS011;64435;47.424;19.400;2022-12-18T03:28:00;30.10;;;11.70;;
75732;SDS011;64435;47.424;19.400;2022-12-18T03:30:28;36.87;;;13.60;;
75732;SDS011;64435;47.424;19.400;2022-12-18T03:33:02;37.08;;;14.07;;
75732;SDS011;64435;47.424;19.400;2022-12-18T03:35:35;39.90;;;14.50;;
75732;SDS011;64435;47.424;19.400;2022-12-18T03:38:04;41.17;;;14.48;;
75732;SDS011;64435;47.424;19.400;2022-12-18T03:40:32;38.37;;;15.20;;
75732;SDS011;64435;47.424;19.400;2022-12-18T03:43:08;37.97;;;13.48;;
75732;SDS011;64435;47.424;19.400;2022-12-18T03:45:47;34.90;;;12.93;;
75732;SDS011;64435;47.424;19.400;2022-12-18T03:51:10;41.30;;;13.65;;
75732;SDS011;64435;47.424;19.400;2022-12-18T03:53:44;41.00;;;13.37;;
75732;SDS011;64435;47.424;19.400;2022-12-18T03:56:14;37.42;;;13.07;;
75732;SDS011;64435;47.424;19.400;2022-12-18T03:58:41;35.17;;;13.40;;
75732;SDS011;64435;47.424;19.400;2022-12-18T04:01:07;37.03;;;13.62;;
75732;SDS011;64435;47.424;19.400;2022-12-18T04:03:33;38.65;;;13.68;;
75732;SDS011;64435;47.424;19.400;2022-12-18T04:06:00;35.03;;;13.90;;
75732;SDS011;64435;47.424;19.400;2022-12-18T04:08:26;40.65;;;14.40;;
75732;SDS011;64435;47.424;19.400;2022-12-18T04:10:51;35.58;;;13.25;;
75732;SDS011;64435;47.424;19.400;2022-12-18T04:13:24;32.80;;;12.97;;
75732;SDS011;64435;47.424;19.400;2022-12-18T04:15:50;36.70;;;13.23;;
75732;SDS011;64435;47.424;19.400;2022-12-18T04:18:16;35.70;;;12.77;;
75732;SDS011;64435;47.424;19.400;2022-12-18T04:20:41;39.25;;;13.90;;
75732;SDS011;64435;47.424;19.400;2022-12-18T04:23:06;36.80;;;14.40;;
75732;SDS011;64435;47.424;19.400;2022-12-18T04:25:32;38.67;;;12.47;;
75732;SDS011;64435;47.424;19.400;2022-12-18T04:27:57;35.53;;;12.37;;
75732;SDS011;64435;47.424;19.400;2022-12-18T04:30:22;32.27;;;11.83;;
75732;SDS011;64435;47.424;19.400;2022-12-18T04:32:48;39.30;;;13.40;;
75732;SDS011;64435;47.424;19.400;2022-12-18T04:35:13;38.33;;;12.57;;
75732;SDS011;64435;47.424;19.400;2022-12-18T04:37:38;35.37;;;12.23;;
75732;SDS011;64435;47.424;19.400;2022-12-18T04:40:04;40.37;;;14.93;;
75732;SDS011;64435;47.424;19.400;2022-12-18T04:42:30;36.35;;;11.80;;
75732;SDS011;64435;47.424;19.400;2022-12-18T04:44:55;37.13;;;13.90;;
75732;SDS011;64435;47.424;19.400;2022-12-18T04:47:21;38.90;;;12.70;;
75732;SDS011;64435;47.424;19.400;2022-12-18T04:49:46;29.40;;;11.07;;
75732;SDS011;64435;47.424;19.400;2022-12-18T04:52:11;37.23;;;13.70;;
75732;SDS011;64435;47.424;19.400;2022-12-18T04:54:40;32.92;;;12.48;;
75732;SDS011;64435;47.424;19.400;2022-12-18T04:57:05;41.97;;;13.43;;
75732;SDS011;64435;47.424;19.400;2022-12-18T04:59:30;30.90;;;12.70;;
75732;SDS011;64435;47.424;19.400;2022-12-18T05:01:56;34.83;;;12.00;;
75732;SDS011;64435;47.424;19.400;2022-12-18T05:04:21;34.80;;;12.35;;
75732;SDS011;64435;47.424;19.400;2022-12-18T05:06:46;39.03;;;12.83;;
75732;SDS011;64435;47.424;19.400;2022-12-18T05:09:12;36.97;;;12.53;;
75732;SDS011;64435;47.424;19.400;2022-12-18T05:11:37;34.90;;;12.20;;
75732;SDS011;64435;47.424;19.400;2022-12-18T05:14:03;35.13;;;13.13;;
75732;SDS011;64435;47.424;19.400;2022-12-18T05:16:31;32.20;;;12.33;;
75732;SDS011;64435;47.424;19.400;2022-12-18T05:18:56;35.25;;;13.00;;
75732;SDS011;64435;47.424;19.400;2022-12-18T05:21:21;36.20;;;13.97;;
75732;SDS011;64435;47.424;19.400;2022-12-18T05:23:47;38.53;;;12.63;;
75732;SDS011;64435;47.424;19.400;2022-12-18T05:26:14;38.53;;;13.23;;
75732;SDS011;64435;47.424;19.400;2022-12-18T05:28:42;36.80;;;12.63;;
75732;SDS011;64435;47.424;19.400;2022-12-18T05:31:07;36.78;;;12.60;;
75732;SDS011;64435;47.424;19.400;2022-12-18T05:33:33;33.33;;;12.87;;
75732;SDS011;64435;47.424;19.400;2022-12-18T05:36:00;37.10;;;12.37;;
75732;SDS011;64435;47.424;19.400;2022-12-18T05:38:27;34.97;;;12.57;;
75732;SDS011;64435;47.424;19.400;2022-12-18T05:40:53;37.83;;;12.85;;
75732;SDS011;64435;47.424;19.400;2022-12-18T05:43:20;34.78;;;13.10;;
75732;SDS011;64435;47.424;19.400;2022-12-18T05:45:49;40.85;;;14.45;;
75732;SDS011;64435;47.424;19.400;2022-12-18T05:48:15;45.20;;;16.53;;
75732;SDS011;64435;47.424;19.400;2022-12-18T05:50:41;42.97;;;16.15;;
75732;SDS011;64435;47.424;19.400;2022-12-18T05:53:08;42.33;;;14.75;;
75732;SDS011;64435;47.424;19.400;2022-12-18T05:55:34;44.00;;;15.90;;
75732;SDS011;64435;47.424;19.400;2022-12-18T05:58:00;44.30;;;16.05;;
75732;SDS011;64435;47.424;19.400;2022-12-18T06:00:25;44.97;;;15.27;;
75732;SDS011;64435;47.424;19.400;2022-12-18T06:02:51;45.30;;;16.27;;
75732;SDS011;64435;47.424;19.400;2022-12-18T06:05:16;51.03;;;18.50;;
75732;SDS011;64435;47.424;19.400;2022-12-18T06:07:42;46.53;;;16.70;;
75732;SDS011;64435;47.424;19.400;2022-12-18T06:10:07;43.00;;;16.93;;
75732;SDS011;64435;47.424;19.400;2022-12-18T06:12:32;55.97;;;21.93;;
75732;SDS011;64435;47.424;19.400;2022-12-18T06:15:01;57.40;;;22.45;;
75732;SDS011;64435;47.424;19.400;2022-12-18T06:17:27;50.40;;;18.93;;
75732;SDS011;64435;47.424;19.400;2022-12-18T06:19:54;43.80;;;18.00;;
75732;SDS011;64435;47.424;19.400;2022-12-18T06:22:20;56.37;;;19.10;;
75732;SDS011;64435;47.424;19.400;2022-12-18T06:24:45;42.97;;;16.17;;
75732;SDS011;64435;47.424;19.400;2022-12-18T06:27:10;52.20;;;17.80;;
75732;SDS011;64435;47.424;19.400;2022-12-18T06:29:36;46.10;;;16.97;;
75732;SDS011;64435;47.424;19.400;2022-12-18T06:32:01;44.63;;;16.37;;
75732;SDS011;64435;47.424;19.400;2022-12-18T06:34:27;44.58;;;16.87;;
75732;SDS011;64435;47.424;19.400;2022-12-18T06:36:52;46.60;;;18.17;;
75732;SDS011;64435;47.424;19.400;2022-12-18T06:39:17;53.70;;;18.80;;
75732;SDS011;64435;47.424;19.400;2022-12-18T06:41:43;51.93;;;16.83;;
75732;SDS011;64435;47.424;19.400;2022-12-18T06:44:08;48.97;;;17.67;;
75732;SDS011;64435;47.424;19.400;2022-12-18T06:46:33;52.97;;;19.27;;
75732;SDS011;64435;47.424;19.400;2022-12-18T06:48:59;53.73;;;19.53;;
75732;SDS011;64435;47.424;19.400;2022-12-18T06:51:24;49.97;;;18.27;;
75732;SDS011;64435;47.424;19.400;2022-12-18T06:53:50;45.47;;;18.70;;
75732;SDS011;64435;47.424;19.400;2022-12-18T06:56:15;46.90;;;18.57;;
75732;SDS011;64435;47.424;19.400;2022-12-18T06:58:41;53.27;;;19.20;;
75732;SDS011;64435;47.424;19.400;2022-12-18T07:01:08;47.13;;;17.67;;
75732;SDS011;64435;47.424;19.400;2022-12-18T07:03:34;51.97;;;19.20;;
75732;SDS011;64435;47.424;19.400;2022-12-18T07:06:00;49.00;;;17.10;;
75732;SDS011;64435;47.424;19.400;2022-12-18T07:08:26;45.07;;;18.50;;
75732;SDS011;64435;47.424;19.400;2022-12-18T07:10:51;47.40;;;17.83;;
75732;SDS011;64435;47.424;19.400;2022-12-18T07:13:18;44.00;;;18.12;;
75732;SDS011;64435;47.424;19.400;2022-12-18T07:15:44;42.60;;;16.63;;
75732;SDS011;64435;47.424;19.400;2022-12-18T07:18:09;45.50;;;18.47;;
75732;SDS011;64435;47.424;19.400;2022-12-18T07:20:35;52.22;;;17.75;;
75732;SDS011;64435;47.424;19.400;2022-12-18T07:23:02;48.25;;;17.60;;
75732;SDS011;64435;47.424;19.400;2022-12-18T07:25:36;51.58;;;20.05;;
75732;SDS011;64435;47.424;19.400;2022-12-18T07:28:02;51.85;;;19.17;;
75732;SDS011;64435;47.424;19.400;2022-12-18T07:30:28;46.97;;;18.83;;
75732;SDS011;64435;47.424;19.400;2022-12-18T07:32:54;50.12;;;20.77;;
75732;SDS011;64435;47.424;19.400;2022-12-18T07:35:19;47.07;;;18.90;;
75732;SDS011;64435;47.424;19.400;2022-12-18T07:37:45;60.03;;;22.53;;
75732;SDS011;64435;47.424;19.400;2022-12-18T07:40:10;49.97;;;20.87;;
75732;SDS011;64435;47.424;19.400;2022-12-18T07:42:36;56.72;;;21.60;;
75732;SDS011;64435;47.424;19.400;2022-12-18T07:45:02;49.60;;;20.87;;
75732;SDS011;64435;47.424;19.400;2022-12-18T07:47:28;61.05;;;21.40;;
75732;SDS011;64435;47.424;19.400;2022-12-18T07:49:54;53.17;;;21.83;;
75732;SDS011;64435;47.424;19.400;2022-12-18T07:52:19;55.20;;;23.87;;
75732;SDS011;64435;47.424;19.400;2022-12-18T07:54:45;54.15;;;24.55;;
75732;SDS011;64435;47.424;19.400;2022-12-18T07:57:11;52.43;;;22.23;;
75732;SDS011;64435;47.424;19.400;2022-12-18T07:59:36;54.93;;;21.33;;
75732;SDS011;64435;47.424;19.400;2022-12-18T08:02:02;62.22;;;26.30;;
75732;SDS011;64435;47.424;19.400;2022-12-18T08:04:27;60.73;;;24.63;;
75732;SDS011;64435;47.424;19.400;2022-12-18T08:06:53;60.28;;;25.05;;
75732;SDS011;64435;47.424;19.400;2022-12-18T08:09:18;68.37;;;27.27;;
75732;SDS011;64435;47.424;19.400;2022-12-18T08:11:44;67.53;;;26.73;;
75732;SDS011;64435;47.424;19.400;2022-12-18T08:14:09;71.43;;;29.43;;
75732;SDS011;64435;47.424;19.400;2022-12-18T08:16:35;66.93;;;26.70;;
75732;SDS011;64435;47.424;19.400;2022-12-18T08:19:00;52.47;;;23.25;;
75732;SDS011;64435;47.424;19.400;2022-12-18T08:21:27;59.40;;;25.07;;
75732;SDS011;64435;47.424;19.400;2022-12-18T08:23:54;62.62;;;26.60;;
75732;SDS011;64435;47.424;19.400;2022-12-18T08:26:21;65.62;;;28.87;;
75732;SDS011;64435;47.424;19.400;2022-12-18T08:28:47;65.90;;;28.67;;
75732;SDS011;64435;47.424;19.400;2022-12-18T08:31:12;81.23;;;31.93;;
75732;SDS011;64435;47.424;19.400;2022-12-18T08:33:38;79.43;;;32.77;;
75732;SDS011;64435;47.424;19.400;2022-12-18T08:36:06;80.10;;;34.10;;
75732;SDS011;64435;47.424;19.400;2022-12-18T08:38:32;76.07;;;31.60;;
75732;SDS011;64435;47.424;19.400;2022-12-18T08:41:05;71.80;;;30.62;;
75732;SDS011;64435;47.424;19.400;2022-12-18T08:43:31;71.23;;;29.87;;
75732;SDS011;64435;47.424;19.400;2022-12-18T08:46:16;72.90;;;29.27;;
75732;SDS011;64435;47.424;19.400;2022-12-18T08:48:42;69.05;;;28.20;;
75732;SDS011;64435;47.424;19.400;2022-12-18T08:51:08;59.40;;;26.48;;
75732;SDS011;64435;47.424;19.400;2022-12-18T08:53:34;59.72;;;23.48;;
75732;SDS011;64435;47.424;19.400;2022-12-18T08:56:00;55.07;;;22.53;;
75732;SDS011;64435;47.424;19.400;2022-12-18T08:58:26;54.08;;;21.92;;
75732;SDS011;64435;47.424;19.400;2022-12-18T09:00:52;47.97;;;20.47;;
75732;SDS011;64435;47.424;19.400;2022-12-18T09:03:17;51.65;;;20.98;;
75732;SDS011;64435;47.424;19.400;2022-12-18T09:05:43;55.27;;;22.67;;
75732;SDS011;64435;47.424;19.400;2022-12-18T09:08:10;51.58;;;20.42;;
75732;SDS011;64435;47.424;19.400;2022-12-18T09:10:41;48.83;;;20.60;;
75732;SDS011;64435;47.424;19.400;2022-12-18T09:13:07;41.47;;;17.73;;
75732;SDS011;64435;47.424;19.400;2022-12-18T09:15:33;40.77;;;17.13;;
75732;SDS011;64435;47.424;19.400;2022-12-18T09:17:58;42.07;;;17.50;;
75732;SDS011;64435;47.424;19.400;2022-12-18T09:20:23;43.57;;;17.50;;
75732;SDS011;64435;47.424;19.400;2022-12-18T09:22:49;41.27;;;18.00;;
75732;SDS011;64435;47.424;19.400;2022-12-18T09:25:14;40.85;;;17.33;;
75732;SDS011;64435;47.424;19.400;2022-12-18T09:27:40;42.53;;;17.27;;
75732;SDS011;64435;47.424;19.400;2022-12-18T09:30:05;38.83;;;14.97;;
75732;SDS011;64435;47.424;19.400;2022-12-18T09:32:31;38.65;;;15.90;;
75732;SDS011;64435;47.424;19.400;2022-12-18T09:34:57;38.77;;;15.47;;
75732;SDS011;64435;47.424;19.400;2022-12-18T09:37:22;38.67;;;15.80;;
75732;SDS011;64435;47.424;19.400;2022-12-18T09:39:47;35.13;;;15.83;;
75732;SDS011;64435;47.424;19.400;2022-12-18T09:42:22;37.20;;;15.10;;
75732;SDS011;64435;47.424;19.400;2022-12-18T09:44:52;35.80;;;16.07;;
75732;SDS011;64435;47.424;19.400;2022-12-18T09:47:20;38.85;;;15.48;;
75732;SDS011;64435;47.424;19.400;2022-12-18T09:49:53;39.78;;;15.82;;
75732;SDS011;64435;47.424;19.400;2022-12-18T09:54:57;39.00;;;15.95;;
75732;SDS011;64435;47.424;19.400;2022-12-18T09:57:25;30.10;;;13.77;;
75732;SDS011;64435;47.424;19.400;2022-12-18T09:59:53;35.10;;;15.40;;
75732;SDS011;64435;47.424;19.400;2022-12-18T10:02:21;33.95;;;14.63;;
75732;SDS011;64435;47.424;19.400;2022-12-18T10:05:05;31.93;;;14.60;;
75732;SDS011;64435;47.424;19.400;2022-12-18T10:12:57;37.20;;;16.73;;
75732;SDS011;64435;47.424;19.400;2022-12-18T10:21:03;49.90;;;20.90;;
75732;SDS011;64435;47.424;19.400;2022-12-18T10:26:22;31.98;;;13.98;;
75732;SDS011;64435;47.424;19.400;2022-12-18T10:28:47;30.12;;;14.63;;
75732;SDS011;64435;47.424;19.400;2022-12-18T10:31:23;160.47;;;55.73;;
75732;SDS011;64435;47.424;19.400;2022-12-18T10:33:49;34.40;;;15.57;;
75732;SDS011;64435;47.424;19.400;2022-12-18T10:36:14;33.50;;;15.10;;
75732;SDS011;64435;47.424;19.400;2022-12-18T10:38:40;31.37;;;13.93;;
75732;SDS011;64435;47.424;19.400;2022-12-18T10:41:06;31.87;;;14.37;;
75732;SDS011;64435;47.424;19.400;2022-12-18T10:44:11;36.35;;;15.27;;
75732;SDS011;64435;47.424;19.400;2022-12-18T10:46:39;33.90;;;14.90;;
75732;SDS011;64435;47.424;19.400;2022-12-18T10:49:07;32.25;;;14.73;;
75732;SDS011;64435;47.424;19.400;2022-12-18T10:51:44;36.17;;;15.88;;
75732;SDS011;64435;47.424;19.400;2022-12-18T10:54:17;33.60;;;15.70;;
75732;SDS011;64435;47.424;19.400;2022-12-18T10:56:46;37.60;;;16.05;;
75732;SDS011;64435;47.424;19.400;2022-12-18T10:59:13;34.13;;;15.73;;
75732;SDS011;64435;47.424;19.400;2022-12-18T11:04:21;36.50;;;16.20;;
75732;SDS011;64435;47.424;19.400;2022-12-18T11:06:58;34.47;;;16.03;;
75732;SDS011;64435;47.424;19.400;2022-12-18T11:09:31;36.47;;;15.63;;
75732;SDS011;64435;47.424;19.400;2022-12-18T11:17:19;41.10;;;21.35;;
75732;SDS011;64435;47.424;19.400;2022-12-18T11:19:46;33.50;;;15.43;;
75732;SDS011;64435;47.424;19.400;2022-12-18T11:22:21;36.95;;;15.15;;
75732;SDS011;64435;47.424;19.400;2022-12-18T11:24:53;32.95;;;15.82;;
75732;SDS011;64435;47.424;19.400;2022-12-18T11:27:19;32.67;;;14.57;;
75732;SDS011;64435;47.424;19.400;2022-12-18T11:29:46;35.85;;;16.58;;
75732;SDS011;64435;47.424;19.400;2022-12-18T11:34:41;35.42;;;17.37;;
75732;SDS011;64435;47.424;19.400;2022-12-18T11:37:09;33.70;;;16.10;;
75732;SDS011;64435;47.424;19.400;2022-12-18T11:39:38;33.38;;;15.98;;
75732;SDS011;64435;47.424;19.400;2022-12-18T11:44:38;35.95;;;17.77;;
75732;SDS011;64435;47.424;19.400;2022-12-18T11:47:29;38.28;;;18.60;;
75732;SDS011;64435;47.424;19.400;2022-12-18T11:50:03;43.07;;;24.17;;
75732;SDS011;64435;47.424;19.400;2022-12-18T11:52:36;37.47;;;19.85;;
75732;SDS011;64435;47.424;19.400;2022-12-18T11:55:17;39.63;;;21.58;;
75732;SDS011;64435;47.424;19.400;2022-12-18T11:57:55;39.75;;;17.62;;
75732;SDS011;64435;47.424;19.400;2022-12-18T12:00:25;35.17;;;16.62;;
75732;SDS011;64435;47.424;19.400;2022-12-18T12:13:52;34.70;;;16.50;;
75732;SDS011;64435;47.424;19.400;2022-12-18T12:19:10;29.40;;;15.27;;
75732;SDS011;64435;47.424;19.400;2022-12-18T12:24:38;31.95;;;15.18;;
75732;SDS011;64435;47.424;19.400;2022-12-18T12:27:25;34.33;;;16.35;;
75732;SDS011;64435;47.424;19.400;2022-12-18T12:30:16;35.78;;;16.33;;
75732;SDS011;64435;47.424;19.400;2022-12-18T12:33:05;36.83;;;17.58;;
75732;SDS011;64435;47.424;19.400;2022-12-18T12:38:21;35.00;;;17.27;;
75732;SDS011;64435;47.424;19.400;2022-12-18T12:41:08;36.53;;;17.23;;
75732;SDS011;64435;47.424;19.400;2022-12-18T12:43:55;35.80;;;16.75;;
75732;SDS011;64435;47.424;19.400;2022-12-18T12:46:22;41.63;;;17.87;;
75732;SDS011;64435;47.424;19.400;2022-12-18T12:51:29;27.92;;;13.15;;
75732;SDS011;64435;47.424;19.400;2022-12-18T12:53:58;29.73;;;13.15;;
75732;SDS011;64435;47.424;19.400;2022-12-18T12:56:25;30.27;;;13.05;;
75732;SDS011;64435;47.424;19.400;2022-12-18T12:59:10;23.50;;;11.45;;
75732;SDS011;64435;47.424;19.400;2022-12-18T13:01:59;27.60;;;12.73;;
75732;SDS011;64435;47.424;19.400;2022-12-18T13:04:48;26.65;;;11.73;;
75732;SDS011;64435;47.424;19.400;2022-12-18T13:20:34;25.00;;;11.98;;
75732;SDS011;64435;47.424;19.400;2022-12-18T13:23:01;24.60;;;11.73;;
75732;SDS011;64435;47.424;19.400;2022-12-18T13:25:44;24.05;;;10.77;;
75732;SDS011;64435;47.424;19.400;2022-12-18T13:28:10;25.97;;;11.53;;
75732;SDS011;64435;47.424;19.400;2022-12-18T13:38:23;30.67;;;12.48;;
75732;SDS011;64435;47.424;19.400;2022-12-18T13:43:23;30.37;;;12.80;;
75732;SDS011;64435;47.424;19.400;2022-12-18T13:46:02;30.50;;;12.35;;
75732;SDS011;64435;47.424;19.400;2022-12-18T13:48:30;28.17;;;11.80;;
75732;SDS011;64435;47.424;19.400;2022-12-18T13:50:59;29.73;;;12.53;;
75732;SDS011;64435;47.424;19.400;2022-12-18T13:53:36;28.25;;;12.40;;
75732;SDS011;64435;47.424;19.400;2022-12-18T13:56:04;30.77;;;13.10;;
75732;SDS011;64435;47.424;19.400;2022-12-18T13:58:30;29.25;;;13.48;;
75732;SDS011;64435;47.424;19.400;2022-12-18T14:00:56;31.43;;;12.87;;
75732;SDS011;64435;47.424;19.400;2022-12-18T14:03:24;32.97;;;13.18;;
75732;SDS011;64435;47.424;19.400;2022-12-18T14:05:52;30.62;;;13.52;;
75732;SDS011;64435;47.424;19.400;2022-12-18T14:08:20;33.75;;;13.18;;
75732;SDS011;64435;47.424;19.400;2022-12-18T14:10:46;28.80;;;12.40;;
75732;SDS011;64435;47.424;19.400;2022-12-18T14:16:17;33.93;;;14.70;;
75732;SDS011;64435;47.424;19.400;2022-12-18T14:18:44;29.12;;;12.32;;
75732;SDS011;64435;47.424;19.400;2022-12-18T14:21:30;29.73;;;12.55;;
75732;SDS011;64435;47.424;19.400;2022-12-18T14:24:14;31.73;;;13.30;;
75732;SDS011;64435;47.424;19.400;2022-12-18T14:26:41;30.70;;;13.33;;
75732;SDS011;64435;47.424;19.400;2022-12-18T14:29:28;33.40;;;13.23;;
75732;SDS011;64435;47.424;19.400;2022-12-18T14:34:32;32.97;;;14.73;;
75732;SDS011;64435;47.424;19.400;2022-12-18T14:36:57;36.73;;;16.50;;
75732;SDS011;64435;47.424;19.400;2022-12-18T14:39:23;36.93;;;16.07;;
75732;SDS011;64435;47.424;19.400;2022-12-18T14:41:50;55.30;;;26.52;;
75732;SDS011;64435;47.424;19.400;2022-12-18T14:44:16;34.63;;;16.23;;
75732;SDS011;64435;47.424;19.400;2022-12-18T14:46:45;37.33;;;16.37;;
75732;SDS011;64435;47.424;19.400;2022-12-18T14:51:55;37.70;;;16.50;;
75732;SDS011;64435;47.424;19.400;2022-12-18T14:54:24;39.00;;;16.43;;
75732;SDS011;64435;47.424;19.400;2022-12-18T14:57:03;35.20;;;17.05;;
75732;SDS011;64435;47.424;19.400;2022-12-18T14:59:29;39.13;;;16.92;;
75732;SDS011;64435;47.424;19.400;2022-12-18T15:07:15;36.93;;;16.77;;
75732;SDS011;64435;47.424;19.400;2022-12-18T15:09:43;41.90;;;17.67;;
75732;SDS011;64435;47.424;19.400;2022-12-18T15:12:35;41.13;;;17.73;;
75732;SDS011;64435;47.424;19.400;2022-12-18T15:15:02;42.62;;;18.00;;
75732;SDS011;64435;47.424;19.400;2022-12-18T15:17:29;41.90;;;18.40;;
75732;SDS011;64435;47.424;19.400;2022-12-18T15:20:01;43.80;;;18.47;;
75732;SDS011;64435;47.424;19.400;2022-12-18T15:22:29;43.63;;;18.92;;
75732;SDS011;64435;47.424;19.400;2022-12-18T15:24:56;59.58;;;22.50;;
75732;SDS011;64435;47.424;19.400;2022-12-18T15:30:21;66.63;;;26.73;;
75732;SDS011;64435;47.424;19.400;2022-12-18T15:32:49;76.53;;;29.35;;
75732;SDS011;64435;47.424;19.400;2022-12-18T15:35:19;75.47;;;28.55;;
75732;SDS011;64435;47.424;19.400;2022-12-18T15:37:46;82.80;;;32.45;;
75732;SDS011;64435;47.424;19.400;2022-12-18T15:40:15;78.97;;;31.67;;
75732;SDS011;64435;47.424;19.400;2022-12-18T15:42:42;76.80;;;29.50;;
75732;SDS011;64435;47.424;19.400;2022-12-18T15:45:27;80.35;;;31.27;;
75732;SDS011;64435;47.424;19.400;2022-12-18T15:47:52;74.00;;;28.30;;
75732;SDS011;64435;47.424;19.400;2022-12-18T15:50:18;81.17;;;29.87;;
75732;SDS011;64435;47.424;19.400;2022-12-18T15:52:44;97.53;;;35.97;;
75732;SDS011;64435;47.424;19.400;2022-12-18T15:55:11;104.63;;;37.25;;
75732;SDS011;64435;47.424;19.400;2022-12-18T15:58:00;80.22;;;29.50;;
75732;SDS011;64435;47.424;19.400;2022-12-18T16:00:25;73.83;;;27.43;;
75732;SDS011;64435;47.424;19.400;2022-12-18T16:02:51;77.80;;;30.30;;
75732;SDS011;64435;47.424;19.400;2022-12-18T16:05:17;72.17;;;28.00;;